createdAt,value
2022-10-26T03:59:24.604Z,58.53
2022-10-26T04:00:24.580Z,58.63
2022-10-26T04:01:23.017Z,58.72
2022-10-26T04:02:24.574Z,58.92
2022-10-26T04:03:22.941Z,58.92
2022-10-26T04:04:24.690Z,58.92
2022-10-26T04:05:24.583Z,58.82
2022-10-26T04:06:23.929Z,59.11
2022-10-26T04:07:24.576Z,59.11
2022-10-26T04:08:24.591Z,59.20
2022-10-26T04:09:22.924Z,59.30
2022-10-26T04:10:24.611Z,59.30
2022-10-26T04:11:24.603Z,59.11
2022-10-26T04:12:23.893Z,59.11
2022-10-26T04:13:22.898Z,59.30
2022-10-26T04:14:22.884Z,59.40
2022-10-26T04:15:24.610Z,59.40
2022-10-26T04:16:26.524Z,59.30
2022-10-26T04:17:22.871Z,59.59
2022-10-26T04:18:24.121Z,59.49
2022-10-26T04:19:22.865Z,59.59
2022-10-26T04:20:22.860Z,59.49
2022-10-26T04:21:24.598Z,59.40
2022-10-26T04:22:22.852Z,59.20
2022-10-26T04:24:22.849Z,59.52
2022-10-26T04:25:22.845Z,59.33
2022-10-26T04:26:24.613Z,59.43
2022-10-26T04:27:24.604Z,59.72
2022-10-26T04:28:24.606Z,59.52
2022-10-26T04:29:24.586Z,59.52
2022-10-26T04:30:24.609Z,59.43
2022-10-26T04:31:24.628Z,59.52
2022-10-26T04:32:24.602Z,59.43
2022-10-26T04:33:24.589Z,59.33
2022-10-26T04:34:24.619Z,59.52
2022-10-26T04:35:24.598Z,59.43
2022-10-26T04:36:24.615Z,59.43
2022-10-26T04:37:24.610Z,59.23
2022-10-26T04:38:24.603Z,59.43
2022-10-26T04:39:24.604Z,59.52
2022-10-26T04:40:24.616Z,59.62
2022-10-26T04:41:24.653Z,59.62
2022-10-26T04:42:24.599Z,59.62
2022-10-26T04:43:24.638Z,59.72
2022-10-26T04:44:24.630Z,59.23
2022-10-26T04:45:22.777Z,59.81
2022-10-26T04:46:22.794Z,59.81
2022-10-26T04:47:22.778Z,59.33
2022-10-26T04:49:22.762Z,59.23
2022-10-26T04:50:24.953Z,59.52
2022-10-26T04:51:24.638Z,59.52
2022-10-26T04:52:22.779Z,59.43
2022-10-26T04:53:22.785Z,59.33
2022-10-26T04:54:22.806Z,59.23
2022-10-26T04:55:24.683Z,59.43
2022-10-26T04:56:22.833Z,59.23
2022-10-26T04:57:22.813Z,59.45
2022-10-26T04:58:24.698Z,59.45
2022-10-26T04:59:24.648Z,59.43
2022-10-26T05:00:24.827Z,58.95
2022-10-26T05:01:24.864Z,59.14
2022-10-26T05:02:24.905Z,59.14
2022-10-26T05:03:24.666Z,59.17
2022-10-26T05:04:24.680Z,59.36
2022-10-26T05:05:24.736Z,59.14
2022-10-26T05:06:24.835Z,59.23
2022-10-26T05:07:24.760Z,59.43
2022-10-26T05:08:24.752Z,59.36
2022-10-26T05:09:24.777Z,59.23
2022-10-26T05:10:24.723Z,59.27
2022-10-26T05:11:24.694Z,59.36
2022-10-26T05:12:24.671Z,59.33
2022-10-26T05:13:22.816Z,59.36
2022-10-26T05:14:22.739Z,59.17
2022-10-26T05:15:24.741Z,59.17
2022-10-26T05:16:22.779Z,59.17
2022-10-26T05:17:22.775Z,59.17
2022-10-26T05:18:22.736Z,59.27
2022-10-26T05:19:24.746Z,59.14
2022-10-26T05:20:22.746Z,59.36
2022-10-26T05:21:22.849Z,59.27
2022-10-26T05:22:22.744Z,59.17
2022-10-26T05:23:22.735Z,59.07
2022-10-26T05:24:24.781Z,59.07
2022-10-26T05:25:22.739Z,58.97
2022-10-26T05:26:22.787Z,59.07
2022-10-26T05:27:24.287Z,59.07
2022-10-26T05:28:22.721Z,59.07
2022-10-26T05:29:22.690Z,59.07
2022-10-26T05:30:24.399Z,59.07
2022-10-26T05:31:22.685Z,59.17
2022-10-26T05:32:24.218Z,58.88
2022-10-26T05:33:24.239Z,58.97
2022-10-26T05:34:22.759Z,58.97
2022-10-26T05:35:24.188Z,59.27
2022-10-26T05:36:22.653Z,58.88
2022-10-26T05:37:22.744Z,58.78
2022-10-26T05:38:24.235Z,58.97
2022-10-26T05:39:22.659Z,59.27
2022-10-26T05:40:24.349Z,59.36
2022-10-26T05:41:22.710Z,59.27
2022-10-26T05:42:24.190Z,58.69
2022-10-26T05:43:24.322Z,59.36
2022-10-26T05:44:24.275Z,58.97
2022-10-26T05:45:24.188Z,59.17
2022-10-26T05:46:24.205Z,58.69
2022-10-26T05:47:24.252Z,58.59
2022-10-26T05:48:24.189Z,58.69
2022-10-26T05:49:24.230Z,59.45
2022-10-26T05:50:23.718Z,58.69
2022-10-26T05:51:22.648Z,59.36
2022-10-26T05:52:22.674Z,58.78
2022-10-26T05:53:22.620Z,58.97
2022-10-26T05:54:23.639Z,58.97
2022-10-26T05:55:24.328Z,58.69
2022-10-26T05:56:22.566Z,58.97
2022-10-26T05:57:24.231Z,58.49
2022-10-26T05:58:22.689Z,59.07
2022-10-26T05:59:24.232Z,59.17
2022-10-26T06:00:24.277Z,59.17
2022-10-26T06:01:24.365Z,58.78
2022-10-26T06:02:24.325Z,58.59
2022-10-26T06:03:24.395Z,58.49
2022-10-26T06:04:24.271Z,58.59
2022-10-26T06:05:24.287Z,58.88
2022-10-26T06:06:24.269Z,58.59
2022-10-26T06:07:24.239Z,58.78
2022-10-26T06:08:24.487Z,58.78
2022-10-26T06:09:24.215Z,58.97
2022-10-26T06:10:24.256Z,58.69
2022-10-26T06:11:24.315Z,58.40
2022-10-26T06:12:24.345Z,58.78
2022-10-26T06:13:24.277Z,58.78
2022-10-26T06:14:24.224Z,58.69
2022-10-26T06:15:24.277Z,58.59
2022-10-26T06:16:24.259Z,58.59
2022-10-26T06:17:24.288Z,58.49
2022-10-26T06:18:24.353Z,58.59
2022-10-26T06:19:23.655Z,58.69
2022-10-26T06:20:22.563Z,58.40
2022-10-26T06:21:24.272Z,58.78
2022-10-26T06:22:22.525Z,58.59
2022-10-26T06:23:22.582Z,58.59
2022-10-26T06:24:22.525Z,58.49
2022-10-26T06:25:22.544Z,58.78
2022-10-26T06:26:24.377Z,58.78
2022-10-26T06:27:22.575Z,58.30
2022-10-26T06:28:22.527Z,58.59
2022-10-26T06:29:22.549Z,58.78
2022-10-26T06:30:22.522Z,58.59
2022-10-26T06:31:22.497Z,58.49
2022-10-26T06:32:24.256Z,58.88
2022-10-26T06:33:29.448Z,58.49
2022-10-26T06:34:24.252Z,58.59
2022-10-26T06:35:24.277Z,58.59
2022-10-26T06:36:24.305Z,58.49
2022-10-26T06:37:24.290Z,58.59
2022-10-26T06:38:24.278Z,58.49
2022-10-26T06:39:24.336Z,58.49
2022-10-26T06:40:24.253Z,58.40
2022-10-26T06:41:22.491Z,58.59
2022-10-26T06:42:24.265Z,58.59
2022-10-26T06:43:24.344Z,58.40
2022-10-26T06:44:22.436Z,58.59
2022-10-26T06:45:24.280Z,58.59
2022-10-26T06:46:24.295Z,58.20
2022-10-26T06:47:24.326Z,58.59
2022-10-26T06:48:24.328Z,58.11
2022-10-26T06:49:24.338Z,58.11
2022-10-26T06:50:24.257Z,58.20
2022-10-26T06:51:24.247Z,58.20
2022-10-26T06:52:22.473Z,58.20
2022-10-26T06:53:24.292Z,58.40
2022-10-26T06:54:24.268Z,58.01
2022-10-26T06:55:24.350Z,58.30
2022-10-26T06:56:24.302Z,58.20
2022-10-26T06:57:24.415Z,58.30
2022-10-26T06:58:22.462Z,58.33
2022-10-26T06:59:22.423Z,58.30
2022-10-26T07:00:22.459Z,58.42
2022-10-26T07:01:22.503Z,58.49
2022-10-26T07:02:24.447Z,58.30
2022-10-26T07:03:22.424Z,58.23
2022-10-26T07:04:24.356Z,58.11
2022-10-26T07:05:22.605Z,58.49
2022-10-26T07:06:24.360Z,58.14
2022-10-26T07:07:24.333Z,58.49
2022-10-26T07:08:22.483Z,58.23
2022-10-26T07:09:24.316Z,57.92
2022-10-26T07:10:22.389Z,58.23
2022-10-26T07:11:24.328Z,57.82
2022-10-26T07:12:24.299Z,58.14
2022-10-26T07:13:22.387Z,58.04
2022-10-26T07:14:24.395Z,58.33
2022-10-26T07:15:24.272Z,58.04
2022-10-26T07:16:24.383Z,58.33
2022-10-26T07:17:24.387Z,58.23
2022-10-26T07:18:24.362Z,58.33
2022-10-26T07:19:24.411Z,58.14
2022-10-26T07:20:24.362Z,58.14
2022-10-26T07:21:24.379Z,58.23
2022-10-26T07:22:23.890Z,58.14
2022-10-26T07:23:22.426Z,58.14
2022-10-26T07:24:22.406Z,58.23
2022-10-26T07:25:24.357Z,58.33
2022-10-26T07:26:22.351Z,58.23
2022-10-26T07:27:24.333Z,58.23
2022-10-26T07:28:22.397Z,58.14
2022-10-26T07:29:22.295Z,58.04
2022-10-26T07:30:22.292Z,58.33
2022-10-26T07:31:22.332Z,58.33
2022-10-26T07:32:22.290Z,58.14
2022-10-26T07:33:24.388Z,58.04
2022-10-26T07:34:22.357Z,58.04
2022-10-26T07:35:23.803Z,58.04
2022-10-26T07:36:23.829Z,58.04
2022-10-26T07:37:23.836Z,57.94
2022-10-26T07:38:23.827Z,58.04
2022-10-26T07:39:23.825Z,57.94
2022-10-26T07:40:23.882Z,58.23
2022-10-26T07:41:23.853Z,58.23
2022-10-26T07:42:23.899Z,57.85
2022-10-26T07:43:23.802Z,58.14
2022-10-26T07:44:23.889Z,57.94
2022-10-26T07:45:23.862Z,58.14
2022-10-26T07:46:23.835Z,57.87
2022-10-26T07:47:23.906Z,58.17
2022-10-26T07:48:23.835Z,58.36
2022-10-26T07:49:26.215Z,58.26
2022-10-26T07:50:22.448Z,58.17
2022-10-26T07:51:23.898Z,58.04
2022-10-26T07:52:23.828Z,57.97
2022-10-26T07:53:27.511Z,58.07
2022-10-26T07:54:22.271Z,58.26
2022-10-26T07:55:22.384Z,57.97
2022-10-26T07:56:23.867Z,57.87
2022-10-26T07:57:22.268Z,58.17
2022-10-26T07:58:22.321Z,58.17
2022-10-26T07:59:22.311Z,57.97
2022-10-26T08:00:22.366Z,57.87
2022-10-26T08:01:23.996Z,57.78
2022-10-26T08:02:22.249Z,57.97
2022-10-26T08:03:22.329Z,57.68
2022-10-26T08:04:22.254Z,58.07
2022-10-26T08:05:22.300Z,57.68
2022-10-26T08:06:23.851Z,58.07
2022-10-26T08:07:23.811Z,58.07
2022-10-26T08:08:22.319Z,57.97
2022-10-26T08:09:23.851Z,57.97
2022-10-26T08:10:23.829Z,58.07
2022-10-26T08:11:23.972Z,57.87
2022-10-26T08:12:23.848Z,58.07
2022-10-26T08:13:23.830Z,57.78
2022-10-26T08:14:23.779Z,57.87
2022-10-26T08:15:23.821Z,57.90
2022-10-26T08:16:23.851Z,57.87
2022-10-26T08:17:23.824Z,57.97
2022-10-26T08:18:23.844Z,57.78
2022-10-26T08:19:23.834Z,57.78
2022-10-26T08:20:23.912Z,57.97
2022-10-26T08:21:36.258Z,58.19
2022-10-26T08:22:23.913Z,57.90
2022-10-26T08:23:23.838Z,57.81
2022-10-26T08:24:23.985Z,57.81
2022-10-26T08:25:23.932Z,57.90
2022-10-26T08:26:23.933Z,57.81
2022-10-26T08:27:24.169Z,58.00
2022-10-26T08:28:22.269Z,57.90
2022-10-26T08:29:22.260Z,57.62
2022-10-26T08:30:22.301Z,57.71
2022-10-26T08:31:23.936Z,57.81
2022-10-26T08:32:22.284Z,57.71
2022-10-26T08:33:22.260Z,57.62
2022-10-26T08:34:22.340Z,57.52
2022-10-26T08:35:22.250Z,57.71
2022-10-26T08:36:23.927Z,57.90
2022-10-26T08:37:22.206Z,57.81
2022-10-26T08:38:24.025Z,57.90
2022-10-26T08:39:22.209Z,57.62
2022-10-26T08:40:23.951Z,57.90
2022-10-26T08:41:22.160Z,58.00
2022-10-26T08:42:23.878Z,57.90
2022-10-26T08:43:23.941Z,57.90
2022-10-26T08:44:22.173Z,57.90
2022-10-26T08:45:29.504Z,57.81
2022-10-26T08:46:23.927Z,58.10
2022-10-26T08:47:23.901Z,57.52
2022-10-26T08:48:23.855Z,58.00
2022-10-26T08:49:24.005Z,58.10
2022-10-26T08:50:23.875Z,57.64
2022-10-26T08:51:23.938Z,57.52
2022-10-26T08:52:23.904Z,58.03
2022-10-26T08:53:23.950Z,57.54
2022-10-26T08:54:24.782Z,57.45
2022-10-26T08:55:24.025Z,58.03
2022-10-26T08:56:23.932Z,58.03
2022-10-26T08:57:23.935Z,57.84
2022-10-26T08:58:23.868Z,57.74
2022-10-26T08:59:23.956Z,58.12
2022-10-26T09:00:23.988Z,57.84
2022-10-26T09:01:24.011Z,58.12
2022-10-26T09:02:23.912Z,58.03
2022-10-26T09:03:23.968Z,57.84
2022-10-26T09:04:23.898Z,57.64
2022-10-26T09:05:23.188Z,57.84
2022-10-26T09:06:23.889Z,57.74
2022-10-26T09:07:22.100Z,57.74
2022-10-26T09:08:22.083Z,57.74
2022-10-26T09:09:23.967Z,57.54
2022-10-26T09:10:23.940Z,57.84
2022-10-26T09:11:23.917Z,57.74
2022-10-26T09:12:23.872Z,57.74
2022-10-26T09:13:24.020Z,57.35
2022-10-26T09:14:23.897Z,57.84
2022-10-26T09:15:23.973Z,57.84
2022-10-26T09:16:23.917Z,57.54
2022-10-26T09:17:23.940Z,57.45
2022-10-26T09:18:23.980Z,57.45
2022-10-26T09:19:23.881Z,57.84
2022-10-26T09:20:23.946Z,57.35
2022-10-26T09:21:23.883Z,57.93
2022-10-26T09:22:23.946Z,57.45
2022-10-26T09:23:23.987Z,57.54
2022-10-26T09:24:23.879Z,57.74
2022-10-26T09:25:23.932Z,57.29
2022-10-26T09:26:23.927Z,57.29
2022-10-26T09:27:23.894Z,57.45
2022-10-26T09:28:23.938Z,57.57
2022-10-26T09:29:23.909Z,57.48
2022-10-26T09:30:23.999Z,57.38
2022-10-26T09:31:23.871Z,57.57
2022-10-26T09:32:23.929Z,57.29
2022-10-26T09:33:23.937Z,57.48
2022-10-26T09:34:23.927Z,57.19
2022-10-26T09:35:24.061Z,57.48
2022-10-26T09:36:23.947Z,57.29
2022-10-26T09:37:23.973Z,57.48
2022-10-26T09:38:22.057Z,57.38
2022-10-26T09:39:22.082Z,57.29
2022-10-26T09:40:22.052Z,57.29
2022-10-26T09:41:25.122Z,57.09
2022-10-26T09:42:23.961Z,57.29
2022-10-26T09:43:23.933Z,57.09
2022-10-26T09:44:23.927Z,57.09
2022-10-26T09:45:23.943Z,57.09
2022-10-26T09:46:23.966Z,57.19
2022-10-26T09:47:23.924Z,57.19
2022-10-26T09:48:24.038Z,57.29
2022-10-26T09:49:23.964Z,57.29
2022-10-26T09:50:24.010Z,57.19
2022-10-26T09:51:23.965Z,57.29
2022-10-26T09:52:24.009Z,57.38
2022-10-26T09:53:22.051Z,57.31
2022-10-26T09:54:22.027Z,57.21
2022-10-26T09:55:24.020Z,57.03
2022-10-26T09:56:23.143Z,57.31
2022-10-26T09:57:22.068Z,57.21
2022-10-26T09:58:23.982Z,57.12
2022-10-26T09:59:22.961Z,57.12
2022-10-26T10:00:22.157Z,57.12
2022-10-26T10:01:22.070Z,57.12
2022-10-26T10:02:22.092Z,57.12
2022-10-26T10:13:34.349Z,56.54
2022-10-26T10:14:37.430Z,56.54
2022-10-26T10:15:34.325Z,56.73
2022-10-26T10:16:34.312Z,56.93
2022-10-26T10:17:34.314Z,56.93
2022-10-26T10:18:34.313Z,56.93
2022-10-26T10:19:34.299Z,56.83
2022-10-26T10:20:34.315Z,57.05
2022-10-26T10:21:34.376Z,57.05
2022-10-26T10:22:34.319Z,56.76
2022-10-26T10:23:34.323Z,57.15
2022-10-26T10:24:34.304Z,57.15
2022-10-26T10:25:34.338Z,57.24
2022-10-26T10:26:34.312Z,57.54
2022-10-26T10:27:34.331Z,57.37
2022-10-26T10:28:34.303Z,57.46
2022-10-26T10:29:34.335Z,57.66
2022-10-26T10:30:34.313Z,57.95
2022-10-26T10:31:34.334Z,57.95
2022-10-26T10:32:37.413Z,57.66
2022-10-26T10:33:34.337Z,58.04
2022-10-26T10:34:34.328Z,57.69
2022-10-26T10:35:34.385Z,57.69
2022-10-26T10:36:34.335Z,58.07
2022-10-26T10:37:34.330Z,57.59
2022-10-26T10:38:34.328Z,57.98
2022-10-26T10:39:33.692Z,57.79
2022-10-26T10:40:34.352Z,57.59
2022-10-26T10:41:34.336Z,57.40
2022-10-26T10:42:34.321Z,57.40
2022-10-26T10:43:34.325Z,57.30
2022-10-26T10:44:34.340Z,57.33
2022-10-26T10:45:34.395Z,57.20
2022-10-26T10:46:34.329Z,57.01
2022-10-26T10:47:34.417Z,57.04
2022-10-26T10:48:37.147Z,57.33
2022-10-26T10:49:34.341Z,57.23
2022-10-26T10:50:34.349Z,57.14
2022-10-26T10:51:34.383Z,57.14
2022-10-26T10:52:34.334Z,57.14
2022-10-26T10:53:34.366Z,57.14
2022-10-26T10:54:34.378Z,57.04
2022-10-26T10:55:32.693Z,56.94
2022-10-26T10:56:34.358Z,57.04
2022-10-26T10:57:32.764Z,57.04
2022-10-26T10:58:32.717Z,57.04
2022-10-26T10:59:34.362Z,56.94
2022-10-26T11:00:34.389Z,57.04
2022-10-26T11:01:32.802Z,57.04
2022-10-26T11:02:32.795Z,57.04
2022-10-26T11:03:32.720Z,57.04
2022-10-26T11:04:34.381Z,56.75
2022-10-26T11:05:32.695Z,56.75
2022-10-26T11:06:32.709Z,56.85
2022-10-26T11:07:32.704Z,56.75
2022-10-26T11:08:33.864Z,56.56
2022-10-26T11:09:34.364Z,56.85
2022-10-26T11:10:32.704Z,56.56
2022-10-26T11:11:32.715Z,56.85
2022-10-26T11:12:32.738Z,56.85
2022-10-26T11:13:33.887Z,56.65
2022-10-26T11:14:32.703Z,56.26
2022-10-26T11:15:32.704Z,56.94
2022-10-26T11:16:34.372Z,56.65
2022-10-26T11:17:33.721Z,56.97
2022-10-26T11:18:34.370Z,56.59
2022-10-26T11:19:32.714Z,56.97
2022-10-26T11:20:34.377Z,56.77
2022-10-26T11:21:32.712Z,56.94
2022-10-26T11:22:34.362Z,56.85
2022-10-26T11:23:34.385Z,57.17
2022-10-26T11:24:33.709Z,56.77
2022-10-26T11:25:34.374Z,56.68
2022-10-26T11:26:34.382Z,56.77
2022-10-26T11:27:32.714Z,56.87
2022-10-26T11:28:34.382Z,56.87
2022-10-26T11:29:36.568Z,56.97
2022-10-26T11:30:32.713Z,56.87
2022-10-26T11:31:34.382Z,56.87
2022-10-26T11:32:32.732Z,56.49
2022-10-26T11:33:32.737Z,56.77
2022-10-26T11:34:32.715Z,56.20
2022-10-26T11:35:32.706Z,56.20
2022-10-26T11:36:34.395Z,56.29
2022-10-26T11:37:32.761Z,56.32
2022-10-26T11:38:45.609Z,56.32
2022-10-26T11:39:32.724Z,56.41
2022-10-26T11:40:34.392Z,56.23
2022-10-26T11:41:32.716Z,56.23
2022-10-26T11:42:32.727Z,56.41
2022-10-26T11:43:34.406Z,56.41
2022-10-26T11:44:34.421Z,56.41
2022-10-26T11:45:34.386Z,56.03
2022-10-26T11:46:34.386Z,56.32
2022-10-26T11:47:34.432Z,55.54
2022-10-26T11:48:34.403Z,56.25
2022-10-26T11:49:34.400Z,56.35
2022-10-26T11:50:34.411Z,56.15
2022-10-26T11:51:34.421Z,55.96
2022-10-26T11:52:34.411Z,55.96
2022-10-26T11:53:34.399Z,56.28
2022-10-26T11:54:34.399Z,56.09
2022-10-26T11:55:34.427Z,55.99
2022-10-26T11:56:34.403Z,55.92
2022-10-26T11:57:34.420Z,55.43
2022-10-26T11:58:34.410Z,55.65
2022-10-26T11:59:34.429Z,56.14
2022-10-26T12:00:34.405Z,55.46
2022-10-26T12:01:34.558Z,55.85
2022-10-26T12:02:34.561Z,55.88
2022-10-26T12:03:34.440Z,55.29
2022-10-26T12:04:33.775Z,55.00
2022-10-26T12:05:34.451Z,55.41
2022-10-26T12:06:32.779Z,55.13
2022-10-26T12:07:32.755Z,55.41
2022-10-26T12:08:34.443Z,54.93
2022-10-26T12:09:35.570Z,55.35
2022-10-26T12:10:34.446Z,54.66
2022-10-26T12:11:34.430Z,54.89
2022-10-26T12:12:35.134Z,54.89
2022-10-26T12:13:32.771Z,54.69
2022-10-26T12:14:34.423Z,54.69
2022-10-26T12:15:45.607Z,54.33
2022-10-26T12:16:34.442Z,54.43
2022-10-26T12:17:34.449Z,53.94
2022-10-26T12:18:54.025Z,54.36
2022-10-26T12:19:34.436Z,54.06
2022-10-26T12:20:34.461Z,53.89
2022-10-26T12:21:34.425Z,53.50
2022-10-26T12:22:34.432Z,53.21
2022-10-26T12:23:47.755Z,53.60
2022-10-26T12:24:34.450Z,53.53
2022-10-26T12:25:34.427Z,53.05
2022-10-26T12:26:34.431Z,52.97
2022-10-26T12:27:34.514Z,52.78
2022-10-26T12:28:34.478Z,52.68
2022-10-26T12:29:34.462Z,52.80
2022-10-26T12:30:34.455Z,52.90
2022-10-26T12:31:34.444Z,52.22
2022-10-26T12:32:34.445Z,52.44
2022-10-26T12:33:34.461Z,52.44
2022-10-26T12:34:34.460Z,52.25
2022-10-26T12:35:34.497Z,51.76
2022-10-26T12:36:34.478Z,51.88
2022-10-26T12:37:36.669Z,52.08
2022-10-26T12:38:34.465Z,51.88
2022-10-26T12:39:34.482Z,51.98
2022-10-26T12:40:34.464Z,52.08
2022-10-26T12:41:32.879Z,51.22
2022-10-26T12:42:34.457Z,51.90
2022-10-26T12:43:32.966Z,51.90
2022-10-26T12:44:32.894Z,51.54
2022-10-26T12:45:34.504Z,51.25
2022-10-26T12:46:34.013Z,51.25
2022-10-26T12:47:32.901Z,51.15
2022-10-26T12:48:39.184Z,50.88
2022-10-26T12:49:32.959Z,51.07
2022-10-26T12:50:32.938Z,51.27
2022-10-26T12:51:38.919Z,51.27
2022-10-26T12:52:34.507Z,50.61
2022-10-26T12:53:33.979Z,50.71
2022-10-26T12:54:32.935Z,50.81
2022-10-26T12:55:34.494Z,50.51
2022-10-26T12:56:32.977Z,50.32
2022-10-26T12:57:34.465Z,50.71
2022-10-26T12:58:33.963Z,50.32
2022-10-26T12:59:34.480Z,50.15
2022-10-26T13:00:33.203Z,49.92
2022-10-26T13:01:34.593Z,49.95
2022-10-26T13:02:35.489Z,50.15
2022-10-26T13:03:32.993Z,49.85
2022-10-26T13:04:34.982Z,49.85
2022-10-26T13:05:33.005Z,49.75
2022-10-26T13:06:33.008Z,49.77
2022-10-26T13:07:33.009Z,49.58
2022-10-26T13:08:35.016Z,49.68
2022-10-26T13:09:33.053Z,49.48
2022-10-26T13:10:34.051Z,49.29
2022-10-26T13:11:33.078Z,49.41
2022-10-26T13:12:34.062Z,49.21
2022-10-26T13:13:34.060Z,49.11
2022-10-26T13:14:35.000Z,49.11
2022-10-26T13:15:33.128Z,49.02
2022-10-26T13:16:33.082Z,49.02
2022-10-26T13:18:34.536Z,49.02
2022-10-26T13:19:34.998Z,48.92
2022-10-26T13:20:35.023Z,49.11
2022-10-26T13:21:34.994Z,48.82
2022-10-26T13:22:35.008Z,48.92
2022-10-26T13:23:35.028Z,48.99
2022-10-26T13:24:35.078Z,48.99
2022-10-26T13:25:35.039Z,48.99
2022-10-26T13:26:35.003Z,49.29
2022-10-26T13:27:35.027Z,49.16
2022-10-26T13:28:35.018Z,49.26
2022-10-26T13:29:35.059Z,49.36
2022-10-26T13:30:35.012Z,49.16
2022-10-26T13:31:35.027Z,49.07
2022-10-26T13:32:35.029Z,49.16
2022-10-26T13:33:35.177Z,49.07
2022-10-26T13:34:35.053Z,49.07
2022-10-26T13:35:35.020Z,48.97
2022-10-26T13:36:35.129Z,48.94
2022-10-26T13:37:35.044Z,48.87
2022-10-26T13:38:35.027Z,48.77
2022-10-26T13:39:35.025Z,48.97
2022-10-26T13:40:35.054Z,48.77
2022-10-26T13:41:35.185Z,48.77
2022-10-26T13:43:35.053Z,48.58
2022-10-26T13:44:35.053Z,48.68
2022-10-26T13:45:35.086Z,48.65
2022-10-26T13:46:33.239Z,48.58
2022-10-26T13:47:33.245Z,48.48
2022-10-26T13:48:35.038Z,48.58
2022-10-26T13:49:35.059Z,48.58
2022-10-26T13:50:35.041Z,48.55
2022-10-26T13:51:35.032Z,48.72
2022-10-26T13:52:35.051Z,48.82
2022-10-26T13:53:37.567Z,49.02
2022-10-26T13:54:35.057Z,49.02
2022-10-26T13:55:35.053Z,48.92
2022-10-26T13:56:35.069Z,48.82
2022-10-26T13:57:35.046Z,48.80
2022-10-26T13:58:35.042Z,48.80
2022-10-26T13:59:35.084Z,48.92
2022-10-26T14:00:35.122Z,48.99
2022-10-26T14:01:35.128Z,48.70
2022-10-26T14:02:33.317Z,48.70
2022-10-26T14:03:35.101Z,48.63
2022-10-26T14:04:34.573Z,48.60
2022-10-26T14:05:33.333Z,48.50
2022-10-26T14:06:33.333Z,48.60
2022-10-26T14:07:34.611Z,48.70
2022-10-26T14:08:33.334Z,48.80
2022-10-26T14:09:33.372Z,48.90
2022-10-26T14:10:33.342Z,48.87
2022-10-26T14:11:33.348Z,48.97
2022-10-26T14:12:35.098Z,49.07
2022-10-26T14:13:33.391Z,48.75
2022-10-26T14:14:33.358Z,49.04
2022-10-26T14:15:35.078Z,49.33
2022-10-26T14:16:33.368Z,49.24
2022-10-26T14:17:33.425Z,49.43
2022-10-26T14:18:33.379Z,49.41
2022-10-26T14:19:33.383Z,49.32
2022-10-26T14:20:35.097Z,49.51
2022-10-26T14:21:33.405Z,49.68
2022-10-26T14:22:33.418Z,49.88
2022-10-26T14:23:34.401Z,49.78
2022-10-26T14:24:46.662Z,49.58
2022-10-26T14:25:47.932Z,49.76
2022-10-26T14:26:33.445Z,50.04
2022-10-26T14:27:33.534Z,50.12
2022-10-26T14:28:33.443Z,50.41
2022-10-26T14:29:33.488Z,50.41
2022-10-26T14:30:35.153Z,50.87
2022-10-26T14:31:33.472Z,50.48
2022-10-26T14:32:33.485Z,50.65
2022-10-26T14:33:35.089Z,50.85
2022-10-26T14:34:33.430Z,50.65
2022-10-26T14:35:33.445Z,51.04
2022-10-26T14:36:35.110Z,51.12
2022-10-26T14:37:35.094Z,51.21
2022-10-26T14:38:35.122Z,51.58
2022-10-26T14:39:35.081Z,51.09
2022-10-26T14:40:35.138Z,50.99
2022-10-26T14:41:35.435Z,51.39
2022-10-26T14:42:33.475Z,51.75
2022-10-26T14:43:35.114Z,51.75
2022-10-26T14:44:33.463Z,51.65
2022-10-26T14:45:50.559Z,51.72
2022-10-26T14:46:33.467Z,51.82
2022-10-26T14:47:35.114Z,51.92
2022-10-26T14:48:34.476Z,51.89
2022-10-26T14:49:33.487Z,51.60
2022-10-26T14:50:33.476Z,51.99
2022-10-26T14:51:33.491Z,51.79
2022-10-26T14:52:35.118Z,52.15
2022-10-26T14:53:35.103Z,52.15
2022-10-26T14:54:35.141Z,52.84
2022-10-26T14:55:35.109Z,52.74
2022-10-26T14:56:35.101Z,52.64
2022-10-26T14:57:35.106Z,52.42
2022-10-26T14:58:35.137Z,52.42
2022-10-26T14:59:35.128Z,52.62
2022-10-26T15:00:35.204Z,52.42
2022-10-26T15:01:36.573Z,52.88
2022-10-26T15:02:35.110Z,52.88
2022-10-26T15:03:35.113Z,52.40
2022-10-26T15:04:35.128Z,52.86
2022-10-26T15:05:35.942Z,53.05
2022-10-26T15:06:35.131Z,52.95
2022-10-26T15:07:35.155Z,52.56
2022-10-26T15:08:45.247Z,52.56
2022-10-26T15:09:34.641Z,53.22
2022-10-26T15:10:33.498Z,52.73
2022-10-26T15:11:35.161Z,53.22
2022-10-26T15:12:33.514Z,52.73
2022-10-26T15:13:34.500Z,52.83
2022-10-26T15:14:35.153Z,53.41
2022-10-26T15:15:35.313Z,53.67
2022-10-26T15:16:33.576Z,53.58
2022-10-26T15:17:33.511Z,53.39
2022-10-26T15:18:34.642Z,53.58
2022-10-26T15:19:33.499Z,53.19
2022-10-26T15:20:35.159Z,53.75
2022-10-26T15:21:33.519Z,53.65
2022-10-26T15:22:33.510Z,53.55
2022-10-26T15:23:35.190Z,53.65
2022-10-26T15:24:37.763Z,54.03
2022-10-26T15:25:35.147Z,54.13
2022-10-26T15:26:35.163Z,53.75
2022-10-26T15:27:35.132Z,54.03
2022-10-26T15:28:35.174Z,54.39
2022-10-26T15:29:35.142Z,54.39
2022-10-26T15:30:35.142Z,53.72
2022-10-26T15:31:35.190Z,54.21
2022-10-26T15:32:35.151Z,54.11
2022-10-26T15:33:35.171Z,54.30
2022-10-26T15:34:35.164Z,54.08
2022-10-26T15:35:35.159Z,54.49
2022-10-26T15:36:35.147Z,54.57
2022-10-26T15:37:35.297Z,54.47
2022-10-26T15:38:35.160Z,54.47
2022-10-26T15:39:35.164Z,54.08
2022-10-26T15:40:35.182Z,54.66
2022-10-26T15:41:36.830Z,54.37
2022-10-26T15:42:35.156Z,54.27
2022-10-26T15:43:34.515Z,54.47
2022-10-26T15:44:35.165Z,54.63
2022-10-26T15:45:33.497Z,54.73
2022-10-26T15:46:35.177Z,54.15
2022-10-26T15:47:33.497Z,54.25
2022-10-26T15:48:33.482Z,54.93
2022-10-26T15:49:33.501Z,54.44
2022-10-26T15:50:35.559Z,54.83
2022-10-26T15:51:35.179Z,55.02
2022-10-26T15:52:33.501Z,54.63
2022-10-26T15:53:33.494Z,55.11
2022-10-26T15:54:33.478Z,55.19
2022-10-26T15:55:33.475Z,54.90
2022-10-26T15:56:35.224Z,55.19
2022-10-26T15:57:33.496Z,55.29
2022-10-26T15:58:34.479Z,55.19
2022-10-26T15:59:33.496Z,55.19
2022-10-26T16:00:33.470Z,55.38
2022-10-26T16:12:43.747Z,55.13
2022-10-26T16:13:43.751Z,55.04
2022-10-26T16:15:06.034Z,54.84
2022-10-26T16:15:42.104Z,55.33
2022-10-26T16:16:42.076Z,55.52
2022-10-26T16:17:42.094Z,55.13
2022-10-26T16:18:43.703Z,55.71
2022-10-26T16:19:43.701Z,55.71
2022-10-26T16:20:43.704Z,55.13
2022-10-26T16:21:43.693Z,55.30
2022-10-26T16:22:43.064Z,55.49
2022-10-26T16:23:43.712Z,54.91
2022-10-26T16:24:43.711Z,55.13
2022-10-26T16:25:43.695Z,55.40
2022-10-26T16:26:43.750Z,55.49
2022-10-26T16:27:43.702Z,55.88
2022-10-26T16:28:43.729Z,55.78
2022-10-26T16:29:43.765Z,55.59
2022-10-26T16:30:43.725Z,55.88
2022-10-26T16:31:43.708Z,55.68
2022-10-26T16:32:43.695Z,55.88
2022-10-26T16:33:43.708Z,55.49
2022-10-26T16:34:43.717Z,55.68
2022-10-26T16:35:43.719Z,55.49
2022-10-26T16:36:43.714Z,55.88
2022-10-26T16:37:43.704Z,56.07
2022-10-26T16:38:43.729Z,55.49
2022-10-26T16:39:43.718Z,55.40
2022-10-26T16:40:43.729Z,56.07
2022-10-26T16:41:42.009Z,55.98
2022-10-26T16:42:42.097Z,56.36
2022-10-26T16:43:43.731Z,55.94
2022-10-26T16:44:43.737Z,56.24
2022-10-26T16:45:41.994Z,56.07
2022-10-26T16:46:42.019Z,55.94
2022-10-26T16:47:41.999Z,55.94
2022-10-26T16:48:42.002Z,55.76
2022-10-26T16:49:43.749Z,56.33
2022-10-26T16:50:42.732Z,55.85
2022-10-26T16:51:41.983Z,55.76
2022-10-26T16:52:41.986Z,56.04
2022-10-26T16:53:41.976Z,56.24
2022-10-26T16:54:43.738Z,56.43
2022-10-26T16:56:41.983Z,56.24
2022-10-26T16:57:41.971Z,56.62
2022-10-26T16:58:43.741Z,56.43
2022-10-26T16:59:41.965Z,56.62
2022-10-26T17:00:43.756Z,56.52
2022-10-26T17:01:42.083Z,56.52
2022-10-26T17:02:42.024Z,56.91
2022-10-26T17:03:41.957Z,56.91
2022-10-26T17:04:42.983Z,56.72
2022-10-26T17:05:43.750Z,56.52
2022-10-26T17:06:43.754Z,56.43
2022-10-26T17:07:43.732Z,56.52
2022-10-26T17:08:43.733Z,56.33
2022-10-26T17:09:43.760Z,56.14
2022-10-26T17:10:43.743Z,56.43
2022-10-26T17:11:43.747Z,56.33
2022-10-26T17:12:43.739Z,56.24
2022-10-26T17:13:41.939Z,56.14
2022-10-26T17:14:43.751Z,56.33
2022-10-26T17:15:41.926Z,56.33
2022-10-26T17:16:43.762Z,56.43
2022-10-26T17:17:43.749Z,56.43